Decoded Metar for ULLI (ST. PETERSBURG in RUSSIA) (IATA:LED) | Meteo·Mobile Aviation Weather
aviador You're here:

ULLI Decoded Metar

ST. PETERSBURG in RUSSIA
Report Time2019-02-19 12:30:00
UTC Time2019-02-19 13:08:15
Flight Rules ifr IFR
Wind220° at 10 kt
W.Decomp.*RWY 28: 3.6 kt HW 9.3 kt LCW
W.Rank220° ranks 13
Current wind is above 220° avg. (7.4)
Visibility9000 m
Phenomena:N/A
Clouds:Broken 006 Hf
Overcast 016 Hf
Expected CloudBase > 400 ft AGL from Temp-Dew spread
Ceiling600 ft
Temp03°C (ISA -12)
Dew Point02°C (93% RH)
AAT-2.3°C
QNH1001 hPa
Density Alt-935 ft
Elevation13 ft
Report Wrong Elevation
Raw Report
ULLI 191230Z 22005MPS 190V250 9000 BKN006 OVC016 03/02 Q1001
R88/190055 NOSIG RMK OBST OBSC=

Extra information for ULLI:More info

Metar Taf Metar & Taf Last 4 Metars F.Rules Stats Wind Profile Meteogram Temp Stats Airport Information Weather charts Add Link Nearby VenuesMetar ALERT Operation Metar Decoded Social comments